Terminal Aerodrome Forecast
Issued by NWS

Home | Current Version | Previous Version | Text Only | Print | Product List | Glossary On
Versions: 1 2 3 4 5 6 7 8 9 10 11 12 13 14 15 16 17 18 19 20 21 22 23 24
000
FTAK31 PAJN 261400 AAA
TAFAKT
TAF AMD
PAKT 261436Z 2615/2712 32006KT P6SM VCFG SCT003 BKN100
     FM261800 33010KT P6SM SCT015 BKN100
     FM262200 33010KT P6SM SCT100
     FM270200 32009KT P6SM SKC
      AMD LTD TO CLD VIS AND WIND 2612/2615=

USA.gov is the U.S. government's official web portal to all federal, state and local government web resources and services.